Time;durP1;ratioP1;P1;durP2;ratioP2;P2;SDS_P1;SDS_P2;PMS_P1;PMS_P2;Temp;Humidity;BMP_temperature;BMP_pressure;BME280_temperature;BME280_humidity;BME280_pressure;Samples;Min_cycle;Max_cycle;Signal;HPM_P1;HPM_P2
2023/02/23 00:02:29;;;;;;;;;;;;;;;1.02;71.48;101792.02;107579;1259;60097;-84
2023/02/23 00:04:56;;;;;;;;;;;;;;;0.96;71.48;101785.71;107706;1256;74601;-85
2023/02/23 00:07:29;;;;;;;;;;;;;;;0.89;71.41;101784.14;107635;1257;124520;-85
2023/02/23 00:10:04;;;;;;;;;;;;;;;0.82;71.54;101782.81;107411;1255;73214;-85
2023/02/23 00:12:37;;;;;;;;;;;;;;;0.75;71.59;101777.81;107334;1256;125060;-86
2023/02/23 00:15:36;;;;;;;;;;;;;;;0.70;71.77;101776.90;106995;1256;59495;-86
2023/02/23 00:18:04;;;;;;;;;;;;;;;0.65;71.81;101776.16;107194;1256;123944;-89
2023/02/23 00:20:33;;;;;;;;;;;;;;;0.62;71.87;101779.00;107301;1256;65683;-89
2023/02/23 00:23:06;;;;;;;;;;;;;;;0.59;72.17;101777.90;107428;1256;71413;-86
2023/02/23 00:25:50;;;;;;;;;;;;;;;0.53;71.96;101781.04;107282;1256;124377;-87
2023/02/23 00:28:25;;;;;;;;;;;;;;;0.45;72.03;101779.02;107217;1256;61254;-87
2023/02/23 00:31:07;;;;;;;;;;;;;;;0.39;71.93;101781.46;107221;1256;123785;-87
2023/02/23 00:33:43;;;;;;;;;;;;;;;0.33;72.14;101784.54;107481;1256;66838;-87
2023/02/23 00:36:16;;;;;;;;;;;;;;;0.25;72.32;101780.75;107187;1256;123880;-86
2023/02/23 00:38:55;;;;;;;;;;;;;;;0.18;72.19;101780.73;107249;1256;61136;-87
2023/02/23 00:41:27;;;;;;;;;;;;;;;0.11;72.53;101777.89;107457;1256;59655;-87
2023/02/23 00:44:03;;;;;;;;;;;;;;;0.03;72.53;101772.39;107343;1257;122783;-89
2023/02/23 00:46:50;;;;;;;;;;;;;;;-0.04;72.57;101770.63;107577;1257;67660;-90
2023/02/23 00:49:22;;;;;;;;;;;;;;;-0.09;72.78;101768.84;107571;1256;123895;-89
2023/02/23 00:51:57;;;;;;;;;;;;;;;-0.15;72.72;101766.81;107344;1256;61334;-91
2023/02/23 00:54:24;;;;;;;;;;;;;;;-0.21;72.89;101764.55;107688;1256;124587;-88
2023/02/23 00:56:51;;;;;;;;;;;;;;;-0.25;72.93;101764.35;107687;1256;75202;-88
2023/02/23 00:59:30;;;;;;;;;;;;;;;-0.31;73.02;101759.88;107392;1256;68466;-89
2023/02/23 01:02:00;;;;;;;;;;;;;;;-0.38;73.15;101759.80;107291;1256;123928;-88
2023/02/23 01:04:36;;;;;;;;;;;;;;;-0.45;73.07;101755.26;107214;1257;61030;-88
2023/02/23 01:07:05;;;;;;;;;;;;;;;-0.54;73.16;101760.70;107235;1256;123996;-88
2023/02/23 01:09:32;;;;;;;;;;;;;;;-0.61;73.32;101761.83;107192;1256;74420;-88
2023/02/23 01:12:15;;;;;;;;;;;;;;;-0.64;73.27;101766.75;107068;1257;124895;-86
2023/02/23 01:14:46;;;;;;;;;;;;;;;-0.70;73.39;101761.58;107302;1256;71221;-86
2023/02/23 01:17:16;;;;;;;;;;;;;;;-0.72;73.54;101767.23;107234;1257;61261;-86
2023/02/23 01:23:04;;;;;;;;;;;;;;;-0.78;73.62;101764.90;107355;1257;77343;-86
2023/02/23 01:25:31;;;;;;;;;;;;;;;-0.78;73.82;101767.42;107126;1256;124619;-86
2023/02/23 01:27:58;;;;;;;;;;;;;;;-0.79;74.00;101767.23;107331;1257;73245;-85
2023/02/23 01:30:45;;;;;;;;;;;;;;;-0.79;73.83;101764.75;107167;1257;124819;-86
2023/02/23 01:33:14;;;;;;;;;;;;;;;-0.80;73.87;101763.65;107239;1256;60190;-86
2023/02/23 01:36:08;;;;;;;;;;;;;;;-0.82;73.91;101756.08;107295;1257;73517;-85
2023/02/23 01:38:36;;;;;;;;;;;;;;;-0.84;73.97;101752.66;107506;1256;65414;-86
2023/02/23 01:41:08;;;;;;;;;;;;;;;-0.84;74.10;101753.65;107223;1256;72684;-86
2023/02/23 01:44:13;;;;;;;;;;;;;;;-0.85;74.06;101753.04;107011;1256;125031;-87
2023/02/23 01:46:42;;;;;;;;;;;;;;;-0.86;74.06;101750.55;107424;1257;61277;-86
2023/02/23 01:49:22;;;;;;;;;;;;;;;-0.86;74.27;101749.56;107172;1259;125215;-86
2023/02/23 01:51:51;;;;;;;;;;;;;;;-0.86;73.99;101747.98;107642;1257;67631;-86
2023/02/23 01:54:40;;;;;;;;;;;;;;;-0.88;74.06;101745.41;107366;1256;124737;-87
2023/02/23 01:57:13;;;;;;;;;;;;;;;-0.88;73.96;101742.95;107216;1256;61242;-86
2023/02/23 01:59:49;;;;;;;;;;;;;;;-0.89;74.17;101738.23;107143;1257;60341;-86
2023/02/23 02:02:32;;;;;;;;;;;;;;;-0.90;74.19;101734.83;107211;1256;124652;-86
2023/02/23 02:05:00;;;;;;;;;;;;;;;-0.89;74.27;101734.27;107164;1257;65541;-86
2023/02/23 02:07:39;;;;;;;;;;;;;;;-0.88;74.28;101731.73;107021;1256;124711;-85
2023/02/23 02:12:43;;;;;;;;;;;;;;;-0.92;74.09;101723.83;107143;1256;125066;-86
2023/02/23 02:15:16;;;;;;;;;;;;;;;-0.93;74.12;101724.09;107540;1256;73716;-85
2023/02/23 02:17:46;;;;;;;;;;;;;;;-0.93;74.05;101727.17;107423;1257;66877;-84
2023/02/23 02:20:31;;;;;;;;;;;;;;;-0.94;74.06;101727.93;107272;1259;124159;-85
2023/02/23 02:23:16;;;;;;;;;;;;;;;-0.96;74.07;101728.85;107265;1256;61085;-88
2023/02/23 02:26:02;;;;;;;;;;;;;;;-0.98;73.95;101727.33;107353;1256;123900;-88
2023/02/23 02:28:42;;;;;;;;;;;;;;;-1.01;74.10;101725.84;107287;1256;74396;-87
2023/02/23 02:31:35;;;;;;;;;;;;;;;-1.04;74.05;101722.86;107038;1258;123953;-88
2023/02/23 02:37:08;;;;;;;;;;;;;;;-1.08;74.12;101726.06;106951;1256;124119;-88
2023/02/23 02:39:46;;;;;;;;;;;;;;;-1.10;74.10;101724.91;107254;1256;61233;-86
2023/02/23 02:42:14;;;;;;;;;;;;;;;-1.11;74.12;101722.69;107385;1255;124919;-86
2023/02/23 02:45:01;;;;;;;;;;;;;;;-1.14;74.21;101727.14;107363;1257;65451;-86
2023/02/23 02:47:49;;;;;;;;;;;;;;;-1.18;73.93;101726.45;107289;1257;71108;-88
2023/02/23 02:50:39;;;;;;;;;;;;;;;-1.21;74.13;101727.05;107056;1257;123997;-89
2023/02/23 02:53:07;;;;;;;;;;;;;;;-1.24;74.00;101726.11;106952;1256;61322;-90
2023/02/23 02:55:36;;;;;;;;;;;;;;;-1.25;74.04;101729.77;107126;1256;123988;-89
2023/02/23 02:58:11;;;;;;;;;;;;;;;-1.27;74.14;101728.22;107125;1257;65221;-89
2023/02/23 04:18:52;;;;;;;;;;;;;;;-0.96;72.59;101667.98;107582;1256;124765;-87
2023/02/23 04:21:19;;;;;;;;;;;;;;;-0.96;72.63;101672.30;107578;1256;74435;-87
2023/02/23 04:23:49;;;;;;;;;;;;;;;-0.94;72.63;101668.52;107327;1256;66027;-87
2023/02/23 04:26:29;;;;;;;;;;;;;;;-0.98;72.58;101662.35;107189;1256;123989;-87
2023/02/23 04:29:00;;;;;;;;;;;;;;;-1.00;72.51;101666.19;107251;1257;61368;-87
2023/02/23 04:31:28;;;;;;;;;;;;;;;-1.01;72.38;101667.93;107213;1259;124114;-87
2023/02/23 04:34:17;;;;;;;;;;;;;;;-1.01;72.46;101664.73;107431;1258;74670;-87
2023/02/23 04:36:44;;;;;;;;;;;;;;;-0.99;72.61;101661.39;107350;1259;124500;-87
2023/02/23 04:39:11;;;;;;;;;;;;;;;-1.00;72.32;101661.14;107132;1257;73557;-86
2023/02/23 04:41:51;;;;;;;;;;;;;;;-1.03;72.33;101659.72;107266;1263;61222;-86
2023/02/23 04:44:28;;;;;;;;;;;;;;;-1.05;72.34;101656.45;107358;1256;123923;-89
2023/02/23 04:46:56;;;;;;;;;;;;;;;-1.04;72.36;101652.86;107516;1257;74436;-90
2023/02/23 04:49:23;;;;;;;;;;;;;;;-1.06;72.32;101652.03;107529;1256;123003;-89
2023/02/23 04:51:50;;;;;;;;;;;;;;;-1.08;72.16;101649.38;107684;1257;71849;-89
2023/02/23 04:54:30;;;;;;;;;;;;;;;-1.13;72.20;101646.20;107590;1256;124201;-91
2023/02/23 04:57:03;;;;;;;;;;;;;;;-1.15;72.15;101643.98;107876;1257;59761;-90
2023/02/23 04:59:31;;;;;;;;;;;;;;;-1.17;72.12;101640.72;107808;1256;75000;-89
2023/02/23 05:02:00;;;;;;;;;;;;;;;-1.20;71.96;101634.46;107592;1261;124150;-88
2023/02/23 05:04:43;;;;;;;;;;;;;;;-1.25;71.95;101641.11;107626;1255;73120;-88
2023/02/23 05:07:30;;;;;;;;;;;;;;;-1.27;72.12;101636.23;107284;1257;124841;-92
2023/02/23 05:10:16;;;;;;;;;;;;;;;-1.29;72.06;101631.45;107515;1255;61360;-91
2023/02/23 05:13:06;;;;;;;;;;;;;;;-1.29;71.86;101627.63;107141;1257;125030;-93
2023/02/23 05:15:34;;;;;;;;;;;;;;;-1.30;71.99;101627.70;107141;1265;67123;-90
2023/02/23 05:18:02;;;;;;;;;;;;;;;-1.31;71.86;101624.54;107284;1264;72748;-89
2023/02/23 05:20:39;;;;;;;;;;;;;;;-1.33;71.98;101622.83;106893;1264;124862;-89
2023/02/23 05:23:27;;;;;;;;;;;;;;;-1.32;71.87;101622.02;106965;1263;59888;-89
2023/02/23 05:26:05;;;;;;;;;;;;;;;-1.31;71.89;101620.58;107005;1263;124858;-87
2023/02/23 05:28:33;;;;;;;;;;;;;;;-1.31;71.78;101616.65;107156;1263;67565;-89
2023/02/23 05:31:02;;;;;;;;;;;;;;;-1.31;71.86;101616.63;106965;1265;124971;-87
2023/02/23 05:33:30;;;;;;;;;;;;;;;-1.29;71.82;101614.02;107249;1263;59326;-90
2023/02/23 05:35:59;;;;;;;;;;;;;;;-1.29;71.78;101612.47;107675;1265;60362;-91
2023/02/23 05:38:26;;;;;;;;;;;;;;;-1.31;71.81;101610.41;107466;1264;124592;-92
2023/02/23 05:40:55;;;;;;;;;;;;;;;-1.30;71.86;101604.12;107361;1262;65875;-89
2023/02/23 05:43:22;;;;;;;;;;;;;;;-1.31;71.90;101601.85;107046;1265;123942;-87
2023/02/23 05:45:49;;;;;;;;;;;;;;;-1.32;71.84;101599.53;107169;1264;59708;-87
2023/02/23 05:48:16;;;;;;;;;;;;;;;-1.32;71.95;101595.21;107216;1265;123425;-91
2023/02/23 05:50:43;;;;;;;;;;;;;;;-1.32;71.93;101594.48;107442;1264;74505;-87
2023/02/23 05:53:10;;;;;;;;;;;;;;;-1.33;71.79;101592.98;107647;1257;65704;-86
2023/02/23 05:55:37;;;;;;;;;;;;;;;-1.35;71.88;101592.52;108115;1256;123903;-83
2023/02/23 05:58:05;;;;;;;;;;;;;;;-1.35;71.89;101594.42;108886;1256;59307;-84
2023/02/23 06:00:32;;;;;;;;;;;;;;;-1.33;72.12;101591.94;108748;1256;124021;-82
2023/02/23 06:02:59;;;;;;;;;;;;;;;-1.35;71.91;101586.86;109003;1259;73374;-83
2023/02/23 06:05:27;;;;;;;;;;;;;;;-1.37;71.98;101586.73;108803;1260;66773;-82
2023/02/23 06:07:54;;;;;;;;;;;;;;;-1.38;72.06;101584.84;107992;1257;124165;-83
2023/02/23 06:10:21;;;;;;;;;;;;;;;-1.36;72.04;101584.35;108215;1257;59371;-85
2023/02/23 06:12:48;;;;;;;;;;;;;;;-1.37;72.22;101578.80;107659;1256;124440;-83
2023/02/23 06:15:18;;;;;;;;;;;;;;;-1.36;72.03;101577.48;107926;1255;73347;-85
2023/02/23 06:17:49;;;;;;;;;;;;;;;-1.36;72.15;101575.23;107540;1257;66790;-85
2023/02/23 06:20:18;;;;;;;;;;;;;;;-1.35;72.12;101575.98;107888;1257;124739;-82
2023/02/23 06:22:46;;;;;;;;;;;;;;;-1.35;72.12;101571.89;108232;1256;59367;-81
2023/02/23 06:25:14;;;;;;;;;;;;;;;-1.35;72.11;101571.67;107909;1257;124696;-86
2023/02/23 06:27:47;;;;;;;;;;;;;;;-1.34;72.07;101572.08;108072;1256;73257;-83
2023/02/23 06:30:22;;;;;;;;;;;;;;;-1.30;72.10;101574.52;107737;1257;65998;-83
2023/02/23 06:32:49;;;;;;;;;;;;;;;-1.26;72.09;101574.35;107854;1257;72718;-82
2023/02/23 06:35:16;;;;;;;;;;;;;;;-1.21;72.22;101576.39;107876;1255;60943;-82
2023/02/23 06:37:43;;;;;;;;;;;;;;;-1.15;72.07;101572.69;108034;1256;125201;-81
2023/02/23 06:40:11;;;;;;;;;;;;;;;-1.11;71.96;101568.88;108018;1257;73341;-82
2023/02/23 06:42:39;;;;;;;;;;;;;;;-1.05;71.94;101571.13;108728;1257;124744;-82
2023/02/23 06:45:07;;;;;;;;;;;;;;;-0.98;72.09;101570.02;108997;1257;71861;-82
2023/02/23 06:47:40;;;;;;;;;;;;;;;-0.89;71.99;101568.19;108832;1256;59358;-82
2023/02/23 06:50:08;;;;;;;;;;;;;;;-0.82;71.90;101562.02;108940;1257;124567;-81
2023/02/23 06:52:36;;;;;;;;;;;;;;;-0.77;71.72;101557.56;108870;1261;73168;-82
2023/02/23 06:55:03;;;;;;;;;;;;;;;-0.71;71.78;101561.55;108820;1257;125510;-82
2023/02/23 06:57:30;;;;;;;;;;;;;;;-0.62;71.59;101555.60;109003;1256;72695;-82
2023/02/23 06:59:57;;;;;;;;;;;;;;;-0.52;71.77;101555.39;108899;1256;59346;-82
2023/02/23 07:02:24;;;;;;;;;;;;;;;-0.43;71.49;101549.57;108801;1257;124331;-82
2023/02/23 07:04:51;;;;;;;;;;;;;;;-0.37;71.46;101545.42;108406;1259;75084;-85
2023/02/23 07:07:18;;;;;;;;;;;;;;;-0.29;71.37;101539.34;108057;1257;123180;-86
2023/02/23 07:10:06;;;;;;;;;;;;;;;-0.20;71.41;101536.44;108114;1257;71884;-86
2023/02/23 07:12:34;;;;;;;;;;;;;;;-0.11;71.29;101533.33;107989;1257;61170;-85
2023/02/23 07:15:03;;;;;;;;;;;;;;;-0.02;70.93;101534.40;107519;1257;60083;-85
2023/02/23 07:17:30;;;;;;;;;;;;;;;0.10;70.94;101532.23;107779;1257;73402;-85
2023/02/23 07:20:04;;;;;;;;;;;;;;;0.23;71.09;101527.36;107922;1257;124208;-85
2023/02/23 07:22:33;;;;;;;;;;;;;;;0.35;71.05;101526.95;107647;1257;73178;-85
2023/02/23 07:25:01;;;;;;;;;;;;;;;0.47;70.99;101527.37;107178;1257;124302;-85
2023/02/23 07:27:29;;;;;;;;;;;;;;;0.56;70.59;101521.14;107547;1257;59891;-85
2023/02/23 07:30:02;;;;;;;;;;;;;;;0.63;70.42;101519.64;107837;1257;75158;-85
2023/02/23 07:32:29;;;;;;;;;;;;;;;0.69;70.26;101516.34;107530;1257;123969;-85
2023/02/23 07:34:56;;;;;;;;;;;;;;;0.80;70.38;101513.68;107805;1257;72511;-85
2023/02/23 07:37:23;;;;;;;;;;;;;;;0.93;70.23;101511.73;107690;1260;123932;-85
2023/02/23 07:39:50;;;;;;;;;;;;;;;1.01;70.07;101507.80;107735;1259;61000;-83
2023/02/23 07:42:17;;;;;;;;;;;;;;;1.08;69.83;101506.59;107746;1257;73240;-82
2023/02/23 07:44:44;;;;;;;;;;;;;;;1.19;69.69;101506.59;108013;1257;123948;-85
2023/02/23 07:47:18;;;;;;;;;;;;;;;1.32;69.55;101500.80;107952;1256;72746;-83
2023/02/23 07:49:45;;;;;;;;;;;;;;;1.42;69.39;101496.36;107490;1257;123891;-84
2023/02/23 07:52:11;;;;;;;;;;;;;;;1.48;69.04;101497.00;107352;1257;62383;-83
2023/02/23 07:54:39;;;;;;;;;;;;;;;1.54;69.09;101494.83;107829;1255;124057;-85
2023/02/23 07:57:05;;;;;;;;;;;;;;;1.60;69.05;101490.42;108414;1255;66826;-83
2023/02/23 07:59:39;;;;;;;;;;;;;;;1.71;68.92;101493.81;107645;1257;72297;-84
2023/02/23 08:02:12;;;;;;;;;;;;;;;1.86;69.01;101486.40;107481;1256;124964;-85
2023/02/23 08:04:39;;;;;;;;;;;;;;;1.99;68.61;101486.60;107899;1255;59558;-83
2023/02/23 08:07:07;;;;;;;;;;;;;;;2.13;68.51;101483.64;107163;1257;124789;-85
2023/02/23 08:09:42;;;;;;;;;;;;;;;2.23;68.42;101483.11;107497;1256;64511;-85
2023/02/23 08:12:15;;;;;;;;;;;;;;;2.35;68.07;101481.70;107486;1256;70249;-83
2023/02/23 08:14:42;;;;;;;;;;;;;;;2.44;67.89;101475.03;107641;1257;124255;-83
2023/02/23 08:17:09;;;;;;;;;;;;;;;2.60;68.00;101474.91;107944;1259;59756;-82
2023/02/23 08:19:36;;;;;;;;;;;;;;;2.73;67.65;101468.38;108076;1257;124213;-82
2023/02/23 08:22:03;;;;;;;;;;;;;;;2.80;67.45;101466.27;108078;1257;67188;-82
2023/02/23 08:24:31;;;;;;;;;;;;;;;2.88;67.39;101459.52;108710;1257;123863;-83
2023/02/23 08:27:00;;;;;;;;;;;;;;;2.97;67.11;101457.13;108860;1256;59350;-82
2023/02/23 08:29:28;;;;;;;;;;;;;;;3.02;66.86;101452.64;109044;1256;59826;-82
2023/02/23 08:31:55;;;;;;;;;;;;;;;3.07;66.66;101451.90;108776;1257;123924;-83
2023/02/23 08:34:29;;;;;;;;;;;;;;;3.07;66.35;101446.54;108081;1260;67377;-85
2023/02/23 08:36:56;;;;;;;;;;;;;;;3.08;66.26;101441.42;107484;1261;123957;-83
2023/02/23 08:39:24;;;;;;;;;;;;;;;3.08;66.19;101439.02;107339;1261;61137;-85
2023/02/23 08:41:54;;;;;;;;;;;;;;;3.11;66.08;101440.23;107641;1260;60520;-85
2023/02/23 08:44:21;;;;;;;;;;;;;;;3.08;65.92;101434.61;107508;1257;124083;-85
2023/02/23 08:46:49;;;;;;;;;;;;;;;3.08;65.77;101429.77;107710;1257;67629;-86
2023/02/23 08:49:16;;;;;;;;;;;;;;;3.13;65.82;101424.38;107414;1257;124535;-84
2023/02/23 08:51:47;;;;;;;;;;;;;;;3.16;65.84;101429.26;107486;1257;61151;-84
2023/02/23 08:54:16;;;;;;;;;;;;;;;3.20;65.76;101431.11;107673;1257;60536;-84
2023/02/23 08:57:00;;;;;;;;;;;;;;;3.27;65.64;101436.25;107314;1262;124076;-84
2023/02/23 08:59:28;;;;;;;;;;;;;;;3.38;65.69;101436.10;107645;1257;67091;-84
2023/02/23 09:01:56;;;;;;;;;;;;;;;3.46;65.53;101435.90;107527;1257;123700;-84
2023/02/23 09:04:36;;;;;;;;;;;;;;;3.56;65.50;101432.01;107512;1258;60869;-84
2023/02/23 09:07:23;;;;;;;;;;;;;;;3.64;65.23;101429.42;107348;1259;124025;-84
2023/02/23 09:09:56;;;;;;;;;;;;;;;3.71;65.25;101425.02;107691;1257;73495;-82
2023/02/23 09:12:24;;;;;;;;;;;;;;;3.81;65.17;101427.04;107691;1255;65700;-82
2023/02/23 09:14:53;;;;;;;;;;;;;;;3.95;65.11;101429.11;107589;1260;124351;-82
2023/02/23 09:17:21;;;;;;;;;;;;;;;4.07;64.86;101421.51;106521;1256;1356306;-82
2023/02/23 09:19:49;;;;;;;;;;;;;;;4.12;64.72;101417.98;107489;1260;124669;-82
2023/02/23 09:22:17;;;;;;;;;;;;;;;4.19;64.55;101421.02;109056;1259;74786;-82
2023/02/23 09:24:44;;;;;;;;;;;;;;;4.29;64.47;101417.63;108870;1257;123834;-82
2023/02/23 09:27:13;;;;;;;;;;;;;;;4.37;64.26;101420.92;108477;1257;73269;-84
2023/02/23 09:29:41;;;;;;;;;;;;;;;4.41;63.90;101413.68;107477;1255;61474;-84
2023/02/23 09:32:11;;;;;;;;;;;;;;;4.43;63.82;101408.95;107038;1260;124309;-84
2023/02/23 09:34:38;;;;;;;;;;;;;;;4.51;63.89;101404.71;107500;1259;74967;-82
2023/02/23 09:37:05;;;;;;;;;;;;;;;4.56;63.71;101397.00;107344;1256;124251;-82
2023/02/23 09:39:33;;;;;;;;;;;;;;;4.64;63.69;101399.27;107421;1262;71102;-82
2023/02/23 09:42:15;;;;;;;;;;;;;;;4.74;63.69;101398.94;107433;1262;60769;-81
2023/02/23 09:44:49;;;;;;;;;;;;;;;4.86;63.65;101392.03;107535;1256;123712;-81
2023/02/23 09:47:42;;;;;;;;;;;;;;;4.97;63.29;101394.89;107528;1257;73179;-84
2023/02/23 09:50:36;;;;;;;;;;;;;;;5.06;63.35;101387.10;107476;1257;124295;-85
2023/02/23 09:53:29;;;;;;;;;;;;;;;5.20;63.25;101386.98;107823;1257;72914;-84
2023/02/23 09:56:27;;;;;;;;;;;;;;;5.29;62.93;101381.90;107455;1260;124397;-85
2023/02/23 09:58:57;;;;;;;;;;;;;;;5.34;62.77;101378.88;106949;1266;61430;-85
2023/02/23 10:02:04;;;;;;;;;;;;;;;5.41;62.75;101376.87;106788;1268;124027;-84
2023/02/23 10:04:35;;;;;;;;;;;;;;;5.55;62.63;101371.02;106743;1273;67124;-84
2023/02/23 10:07:11;;;;;;;;;;;;;;;5.58;62.34;101371.73;106466;1270;124635;-84
2023/02/23 10:09:58;;;;;;;;;;;;;;;5.61;62.31;101366.33;106715;1270;59869;-84
2023/02/23 10:12:44;;;;;;;;;;;;;;;5.64;62.24;101370.11;106885;1273;60016;-84
2023/02/23 10:15:44;;;;;;;;;;;;;;;5.72;62.28;101369.67;106701;1269;74768;-84
2023/02/23 10:18:32;;;;;;;;;;;;;;;5.78;62.03;101364.09;106601;1268;65549;-84
2023/02/23 10:21:04;;;;;;;;;;;;;;;5.84;61.92;101355.34;106565;1272;73089;-84
2023/02/23 10:23:38;;;;;;;;;;;;;;;5.76;61.55;101354.56;106516;1269;61517;-84
2023/02/23 10:26:07;;;;;;;;;;;;;;;5.74;61.70;101350.46;106386;1273;123959;-83
2023/02/23 10:28:35;;;;;;;;;;;;;;;5.80;61.61;101349.23;106529;1273;75045;-84
2023/02/23 10:31:16;;;;;;;;;;;;;;;5.86;61.69;101344.84;106496;1269;124434;-84
2023/02/23 10:33:43;;;;;;;;;;;;;;;6.03;61.70;101337.74;106390;1273;73735;-84
2023/02/23 10:36:20;;;;;;;;;;;;;;;6.18;61.60;101335.75;107131;1257;61311;-84
2023/02/23 10:38:54;;;;;;;;;;;;;;;6.30;61.50;101329.55;107476;1257;122759;-84
2023/02/23 10:41:28;;;;;;;;;;;;;;;6.40;61.22;101328.88;107889;1257;75136;-84
2023/02/23 10:43:58;;;;;;;;;;;;;;;6.45;61.07;101327.54;107428;1257;124139;-84
2023/02/23 10:46:36;;;;;;;;;;;;;;;6.44;60.80;101325.77;107658;1260;72577;-84
2023/02/23 10:49:12;;;;;;;;;;;;;;;6.41;60.65;101325.08;107664;1258;124168;-84
2023/02/23 10:52:07;;;;;;;;;;;;;;;6.39;60.70;101321.34;107804;1262;61351;-84
2023/02/23 10:54:59;;;;;;;;;;;;;;;6.45;60.67;101320.39;107580;1257;125544;-85
2023/02/23 10:57:37;;;;;;;;;;;;;;;6.51;60.57;101315.48;107352;1258;68407;-86
2023/02/23 11:00:10;;;;;;;;;;;;;;;6.56;60.40;101311.88;107676;1260;73342;-85
2023/02/23 11:02:40;;;;;;;;;;;;;;;6.57;60.38;101304.27;107866;1256;123795;-85
2023/02/23 11:05:29;;;;;;;;;;;;;;;6.63;60.31;101302.27;107720;1258;61698;-86
2023/02/23 11:08:23;;;;;;;;;;;;;;;6.66;60.08;101293.70;107252;1257;124057;-84
2023/02/23 11:11:07;;;;;;;;;;;;;;;6.67;60.07;101290.09;107410;1257;67224;-85
2023/02/23 11:13:48;;;;;;;;;;;;;;;6.64;59.88;101285.10;107545;1254;123830;-84
2023/02/23 11:16:20;;;;;;;;;;;;;;;6.67;59.84;101280.68;107596;1256;61282;-85
2023/02/23 11:18:49;;;;;;;;;;;;;;;6.67;59.78;101275.46;107456;1256;123919;-85
2023/02/23 11:21:22;;;;;;;;;;;;;;;6.67;59.68;101264.99;107387;1260;73398;-84
2023/02/23 11:23:51;;;;;;;;;;;;;;;6.65;59.60;101261.08;107652;1256;64774;-85
2023/02/23 11:26:32;;;;;;;;;;;;;;;6.64;59.51;101258.73;108067;1258;124021;-85
2023/02/23 11:29:25;;;;;;;;;;;;;;;6.60;59.53;101246.86;108194;1256;60859;-85
2023/02/23 11:31:53;;;;;;;;;;;;;;;6.54;59.47;101240.10;107855;1260;124749;-85
2023/02/23 11:34:42;;;;;;;;;;;;;;;6.50;59.48;101237.50;107653;1257;74723;-84
2023/02/23 11:37:19;;;;;;;;;;;;;;;6.49;59.46;101233.94;107399;1261;124537;-83
2023/02/23 11:40:00;;;;;;;;;;;;;;;6.47;59.47;101228.59;107672;1256;72354;-85
2023/02/23 11:42:34;;;;;;;;;;;;;;;6.41;59.29;101222.03;107518;1257;61334;-85
2023/02/23 11:45:02;;;;;;;;;;;;;;;6.31;59.29;101218.95;107775;1257;123740;-84
2023/02/23 11:47:37;;;;;;;;;;;;;;;6.27;59.34;101218.73;107673;1256;74758;-85
2023/02/23 11:50:05;;;;;;;;;;;;;;;6.22;59.47;101217.13;107404;1257;123754;-84
2023/02/23 11:52:32;;;;;;;;;;;;;;;6.21;59.46;101213.95;107692;1257;71456;-84
2023/02/23 11:55:02;;;;;;;;;;;;;;;6.23;59.45;101211.91;107497;1257;124664;-84
2023/02/23 11:57:32;;;;;;;;;;;;;;;6.24;59.44;101207.09;107746;1257;60364;-84
2023/02/23 12:00:01;;;;;;;;;;;;;;;6.22;59.50;101201.42;108085;1257;75228;-85
2023/02/23 12:02:41;;;;;;;;;;;;;;;6.23;59.47;101199.88;107827;1255;123984;-84
2023/02/23 12:05:20;;;;;;;;;;;;;;;6.25;59.46;101194.58;107445;1257;73645;-84
2023/02/23 12:08:06;;;;;;;;;;;;;;;6.26;59.51;101192.02;107323;1257;125214;-84
2023/02/23 12:10:45;;;;;;;;;;;;;;;6.18;59.31;101186.40;107504;1257;61018;-84
2023/02/23 12:13:28;;;;;;;;;;;;;;;6.06;59.32;101180.27;107224;1257;124188;-84
2023/02/23 12:16:02;;;;;;;;;;;;;;;5.97;59.36;101179.45;107376;1257;65782;-84
2023/02/23 12:18:43;;;;;;;;;;;;;;;5.87;59.42;101172.98;107378;1260;73240;-84
2023/02/23 12:21:17;;;;;;;;;;;;;;;5.82;59.65;101166.31;107306;1260;62190;-85
2023/02/23 12:23:47;;;;;;;;;;;;;;;5.84;59.73;101167.61;107231;1257;60040;-84
2023/02/23 12:26:33;;;;;;;;;;;;;;;5.90;59.94;101164.05;106990;1257;124663;-84
2023/02/23 12:29:04;;;;;;;;;;;;;;;6.02;60.05;101159.30;107292;1256;67592;-83
2023/02/23 12:31:49;;;;;;;;;;;;;;;6.15;60.13;101157.33;107319;1257;124072;-82
2023/02/23 12:34:20;;;;;;;;;;;;;;;6.27;60.04;101150.25;107294;1256;61416;-82
2023/02/23 12:36:59;;;;;;;;;;;;;;;6.35;59.92;101151.16;107239;1255;124096;-82
2023/02/23 12:39:34;;;;;;;;;;;;;;;6.41;59.81;101147.63;107297;1255;74692;-83
2023/02/23 12:42:20;;;;;;;;;;;;;;;6.50;59.84;101144.39;108803;1256;65924;-83
2023/02/23 12:45:01;;;;;;;;;;;;;;;6.57;59.85;101136.70;107810;1258;124269;-84
2023/02/23 12:47:48;;;;;;;;;;;;;;;6.65;59.76;101130.96;107330;1257;62127;-85
2023/02/23 12:50:37;;;;;;;;;;;;;;;6.79;59.89;101124.63;107024;1257;123988;-84
2023/02/23 12:53:11;;;;;;;;;;;;;;;6.98;59.92;101112.77;107384;1256;74705;-85
2023/02/23 12:55:49;;;;;;;;;;;;;;;7.16;59.94;101105.89;107149;1258;124018;-85
2023/02/23 12:58:44;;;;;;;;;;;;;;;7.32;59.84;101093.50;107353;1257;73202;-83
2023/02/23 13:01:32;;;;;;;;;;;;;;;7.43;59.54;101090.16;107528;1257;124264;-84
2023/02/23 13:04:08;;;;;;;;;;;;;;;7.43;59.33;101084.70;107475;1258;61145;-85
2023/02/23 13:06:48;;;;;;;;;;;;;;;7.44;59.34;101077.97;107178;1257;75779;-85
2023/02/23 13:09:40;;;;;;;;;;;;;;;7.44;59.16;101072.39;107287;1257;67116;-85
2023/02/23 13:12:20;;;;;;;;;;;;;;;7.39;59.06;101062.55;107441;1256;72725;-85
2023/02/23 13:14:53;;;;;;;;;;;;;;;7.28;58.87;101057.00;107199;1263;124321;-86
2023/02/23 13:17:36;;;;;;;;;;;;;;;7.11;58.72;101054.88;107876;1256;61060;-83
2023/02/23 13:20:09;;;;;;;;;;;;;;;7.03;58.93;101052.95;107498;1257;124020;-84
2023/02/23 13:23:12;;;;;;;;;;;;;;;7.04;59.02;101050.04;107885;1256;65606;-84
2023/02/23 13:25:41;;;;;;;;;;;;;;;7.02;59.15;101044.40;107129;1263;124421;-83
2023/02/23 13:28:22;;;;;;;;;;;;;;;7.07;59.21;101038.29;107393;1261;61113;-83
2023/02/23 13:31:19;;;;;;;;;;;;;;;7.12;59.26;101029.45;107527;1257;123898;-83
2023/02/23 13:33:55;;;;;;;;;;;;;;;7.05;58.96;101023.38;107347;1260;75451;-83
2023/02/23 13:36:45;;;;;;;;;;;;;;;6.99;59.11;101016.67;107761;1257;68727;-84
2023/02/23 13:39:43;;;;;;;;;;;;;;;6.98;59.19;101012.11;107763;1257;123761;-84
2023/02/23 13:42:13;;;;;;;;;;;;;;;6.97;59.16;101005.27;107662;1256;61291;-84
2023/02/23 13:45:11;;;;;;;;;;;;;;;;;;;;;
2023/02/23 13:47:45;;;;;;;;;;;;;;;6.92;59.28;100998.20;107986;1257;75226;-84
2023/02/23 13:50:21;;;;;;;;;;;;;;;6.93;59.26;100992.00;108007;1257;124324;-84
2023/02/23 13:52:57;;;;;;;;;;;;;;;6.96;59.37;100986.00;108142;1256;72763;-85
2023/02/23 13:55:29;;;;;;;;;;;;;;;6.98;59.35;100980.86;107980;1256;124479;-84
2023/02/23 13:58:15;;;;;;;;;;;;;;;7.04;59.38;100977.09;108893;1257;59355;-84
2023/02/23 14:03:50;;;;;;;;;;;;;;;7.05;59.26;100963.92;107977;1256;66710;-86
2023/02/23 14:06:18;;;;;;;;;;;;;;;7.04;59.37;100961.21;107591;1257;72538;-86
2023/02/23 14:09:14;;;;;;;;;;;;;;;7.08;59.45;100963.14;107620;1257;124790;-84
2023/02/23 14:11:43;;;;;;;;;;;;;;;7.12;59.50;100961.02;107796;1258;61247;-84
2023/02/23 14:14:15;;;;;;;;;;;;;;;7.12;59.47;100955.84;107597;1258;124266;-86
2023/02/23 14:16:45;;;;;;;;;;;;;;;7.11;59.42;100955.92;107810;1257;65792;-84
2023/02/23 14:19:35;;;;;;;;;;;;;;;7.04;59.22;100954.79;107904;1257;71380;-84
2023/02/23 14:25:33;;;;;;;;;;;;;;;6.89;59.35;100942.97;107835;1257;123919;-83
2023/02/23 14:28:01;;;;;;;;;;;;;;;6.89;59.39;100941.75;107769;1257;73058;-84
2023/02/23 14:30:28;;;;;;;;;;;;;;;6.87;59.40;100935.53;107736;1257;68066;-85
2023/02/23 14:33:06;;;;;;;;;;;;;;;6.82;59.45;100936.55;108075;1256;123921;-83
2023/02/23 14:35:33;;;;;;;;;;;;;;;6.79;59.56;100933.30;108212;1258;60278;-81
2023/02/23 14:38:03;;;;;;;;;;;;;;;6.76;59.71;100928.84;107634;1257;124505;-82
2023/02/23 14:40:31;;;;;;;;;;;;;;;6.73;59.74;100916.50;107562;1261;75489;-82
2023/02/23 14:42:59;;;;;;;;;;;;;;;6.70;59.84;100917.02;107847;1257;65467;-82